sensor_id;sensor_type;location;lat;lon;timestamp;pressure;altitude;pressure_sealevel;temperature;humidity
28000;BME280;15328;50.860;10.562;2023-04-08T00:02:15;96826.69;;;6.31;48.27
28000;BME280;15328;50.860;10.562;2023-04-08T00:07:16;96816.94;;;6.31;48.27
28000;BME280;15328;50.860;10.562;2023-04-08T00:12:16;96821.50;;;6.37;47.90
28000;BME280;15328;50.860;10.562;2023-04-08T00:17:16;96826.31;;;6.34;47.72
28000;BME280;15328;50.860;10.562;2023-04-08T00:22:17;96823.50;;;6.35;47.34
28000;BME280;15328;50.860;10.562;2023-04-08T00:27:17;96821.91;;;6.26;47.65
28000;BME280;15328;50.860;10.562;2023-04-08T00:32:17;96818.28;;;6.12;48.15
28000;BME280;15328;50.860;10.562;2023-04-08T00:37:18;96816.28;;;6.14;48.04
28000;BME280;15328;50.860;10.562;2023-04-08T00:42:19;96819.56;;;6.16;48.39
28000;BME280;15328;50.860;10.562;2023-04-08T00:47:21;96822.84;;;6.18;48.94
28000;BME280;15328;50.860;10.562;2023-04-08T00:52:21;96820.19;;;6.18;48.48
28000;BME280;15328;50.860;10.562;2023-04-08T00:57:22;96827.50;;;6.31;47.71
28000;BME280;15328;50.860;10.562;2023-04-08T01:07:35;96820.81;;;6.20;47.99
28000;BME280;15328;50.860;10.562;2023-04-08T01:12:40;96822.47;;;6.22;48.67
28000;BME280;15328;50.860;10.562;2023-04-08T01:17:42;96819.81;;;6.22;48.74
28000;BME280;15328;50.860;10.562;2023-04-08T01:27:51;96822.38;;;6.15;49.64
28000;BME280;15328;50.860;10.562;2023-04-08T01:32:54;96812.53;;;6.24;49.00
28000;BME280;15328;50.860;10.562;2023-04-08T01:37:55;96816.53;;;6.19;49.46
28000;BME280;15328;50.860;10.562;2023-04-08T01:42:57;96817.28;;;6.13;49.79
28000;BME280;15328;50.860;10.562;2023-04-08T01:48:00;96810.53;;;6.26;49.68
28000;BME280;15328;50.860;10.562;2023-04-08T01:53:01;96815.63;;;6.12;50.14
28000;BME280;15328;50.860;10.562;2023-04-08T01:58:04;96810.25;;;6.06;50.80
28000;BME280;15328;50.860;10.562;2023-04-08T02:03:07;96808.25;;;6.08;50.49
28000;BME280;15328;50.860;10.562;2023-04-08T02:08:11;96823.75;;;6.26;49.75
28000;BME280;15328;50.860;10.562;2023-04-08T02:13:11;96811.44;;;6.18;50.22
28000;BME280;15328;50.860;10.562;2023-04-08T02:18:15;96816.00;;;6.09;50.98
28000;BME280;15328;50.860;10.562;2023-04-08T02:23:21;96814.63;;;6.13;50.61
28000;BME280;15328;50.860;10.562;2023-04-08T02:28:25;96818.81;;;6.08;51.18
28000;BME280;15328;50.860;10.562;2023-04-08T02:33:26;96815.63;;;6.12;51.51
28000;BME280;15328;50.860;10.562;2023-04-08T02:38:27;96808.72;;;6.11;50.88
28000;BME280;15328;50.860;10.562;2023-04-08T02:43:29;96806.03;;;5.97;51.38
28000;BME280;15328;50.860;10.562;2023-04-08T02:48:32;96815.38;;;6.07;51.04
28000;BME280;15328;50.860;10.562;2023-04-08T02:53:33;96813.34;;;6.09;51.08
28000;BME280;15328;50.860;10.562;2023-04-08T02:58:33;96816.28;;;6.14;51.01
28000;BME280;15328;50.860;10.562;2023-04-08T03:03:33;96813.25;;;6.17;51.63
28000;BME280;15328;50.860;10.562;2023-04-08T03:08:34;96818.72;;;6.16;52.67
28000;BME280;15328;50.860;10.562;2023-04-08T03:13:34;96816.72;;;6.18;52.51
28000;BME280;15328;50.860;10.562;2023-04-08T03:18:35;96820.56;;;6.15;52.87
28000;BME280;15328;50.860;10.562;2023-04-08T03:23:35;96831.56;;;6.19;53.31
28000;BME280;15328;50.860;10.562;2023-04-08T03:28:36;96833.03;;;6.22;53.63
28000;BME280;15328;50.860;10.562;2023-04-08T03:33:36;96826.38;;;6.26;53.93
28000;BME280;15328;50.860;10.562;2023-04-08T03:38:37;96836.50;;;6.22;54.13
28000;BME280;15328;50.860;10.562;2023-04-08T03:43:37;96833.59;;;6.32;54.15
28000;BME280;15328;50.860;10.562;2023-04-08T03:48:37;96838.88;;;6.17;54.29
28000;BME280;15328;50.860;10.562;2023-04-08T03:53:38;96845.59;;;6.19;54.73
28000;BME280;15328;50.860;10.562;2023-04-08T03:58:38;96855.53;;;6.03;56.63
28000;BME280;15328;50.860;10.562;2023-04-08T04:03:38;96856.03;;;5.98;56.95
28000;BME280;15328;50.860;10.562;2023-04-08T04:08:38;96862.22;;;5.91;57.40
28000;BME280;15328;50.860;10.562;2023-04-08T04:13:39;96866.59;;;5.98;57.31
28000;BME280;15328;50.860;10.562;2023-04-08T04:18:39;96879.69;;;5.92;58.33
28000;BME280;15328;50.860;10.562;2023-04-08T04:23:40;96872.25;;;5.95;58.10
28000;BME280;15328;50.860;10.562;2023-04-08T04:28:40;96874.28;;;5.85;58.78
28000;BME280;15328;50.860;10.562;2023-04-08T04:33:40;96874.19;;;5.78;59.80
28000;BME280;15328;50.860;10.562;2023-04-08T04:38:41;96868.53;;;5.81;59.31
28000;BME280;15328;50.860;10.562;2023-04-08T04:43:44;96874.63;;;5.82;59.86
28000;BME280;15328;50.860;10.562;2023-04-08T04:48:44;96873.78;;;5.89;59.30
28000;BME280;15328;50.860;10.562;2023-04-08T04:53:45;96884.16;;;5.91;60.22
28000;BME280;15328;50.860;10.562;2023-04-08T04:58:45;96882.25;;;6.00;59.84
28000;BME280;15328;50.860;10.562;2023-04-08T05:03:46;96883.09;;;6.00;60.14
28000;BME280;15328;50.860;10.562;2023-04-08T05:08:46;96888.53;;;5.99;60.61
28000;BME280;15328;50.860;10.562;2023-04-08T05:13:46;96885.13;;;6.13;60.29
28000;BME280;15328;50.860;10.562;2023-04-08T05:18:47;96892.06;;;6.14;60.23
28000;BME280;15328;50.860;10.562;2023-04-08T05:23:47;96896.53;;;6.13;60.44
28000;BME280;15328;50.860;10.562;2023-04-08T05:28:48;96901.72;;;6.22;60.73
28000;BME280;15328;50.860;10.562;2023-04-08T05:33:49;96901.00;;;6.28;60.53
28000;BME280;15328;50.860;10.562;2023-04-08T05:38:49;96907.06;;;6.36;60.38
28000;BME280;15328;50.860;10.562;2023-04-08T05:43:50;96910.16;;;6.40;60.68
28000;BME280;15328;50.860;10.562;2023-04-08T05:48:50;96917.91;;;6.56;60.25
28000;BME280;15328;50.860;10.562;2023-04-08T05:53:50;96908.44;;;6.62;60.06
28000;BME280;15328;50.860;10.562;2023-04-08T05:58:51;96913.75;;;6.62;59.83
28000;BME280;15328;50.860;10.562;2023-04-08T06:03:51;96926.09;;;6.46;60.73
28000;BME280;15328;50.860;10.562;2023-04-08T06:08:52;96930.47;;;6.54;60.47
28000;BME280;15328;50.860;10.562;2023-04-08T06:13:53;96937.91;;;6.59;59.88
28000;BME280;15328;50.860;10.562;2023-04-08T06:18:53;96941.41;;;6.51;60.74
28000;BME280;15328;50.860;10.562;2023-04-08T06:23:54;96943.34;;;6.57;60.39
28000;BME280;15328;50.860;10.562;2023-04-08T06:28:54;96952.94;;;6.58;60.40
28000;BME280;15328;50.860;10.562;2023-04-08T06:33:54;96942.47;;;6.65;59.88
28000;BME280;15328;50.860;10.562;2023-04-08T06:38:55;96948.63;;;6.57;60.42
28000;BME280;15328;50.860;10.562;2023-04-08T06:43:58;96961.03;;;6.57;60.59
28000;BME280;15328;50.860;10.562;2023-04-08T06:48:58;96971.81;;;6.70;60.34
28000;BME280;15328;50.860;10.562;2023-04-08T06:53:59;96965.34;;;6.72;60.18
28000;BME280;15328;50.860;10.562;2023-04-08T06:58:59;96970.31;;;6.53;60.23
28000;BME280;15328;50.860;10.562;2023-04-08T07:04:00;96973.13;;;6.51;60.90
28000;BME280;15328;50.860;10.562;2023-04-08T07:09:01;96986.81;;;6.55;60.97
28000;BME280;15328;50.860;10.562;2023-04-08T07:14:01;96982.25;;;6.48;61.68
28000;BME280;15328;50.860;10.562;2023-04-08T07:19:02;96984.81;;;6.57;61.18
28000;BME280;15328;50.860;10.562;2023-04-08T07:24:02;96996.75;;;6.53;62.58
28000;BME280;15328;50.860;10.562;2023-04-08T07:29:02;97006.50;;;6.52;62.90
28000;BME280;15328;50.860;10.562;2023-04-08T07:34:03;97013.75;;;6.58;62.91
28000;BME280;15328;50.860;10.562;2023-04-08T07:39:03;97009.38;;;6.65;63.03
28000;BME280;15328;50.860;10.562;2023-04-08T07:44:04;97010.84;;;6.82;62.04
28000;BME280;15328;50.860;10.562;2023-04-08T07:49:04;97010.97;;;6.89;62.06
28000;BME280;15328;50.860;10.562;2023-04-08T07:54:04;97017.00;;;6.98;62.16
28000;BME280;15328;50.860;10.562;2023-04-08T07:59:05;97015.06;;;6.92;62.47
28000;BME280;15328;50.860;10.562;2023-04-08T08:04:06;97021.56;;;6.89;62.44
28000;BME280;15328;50.860;10.562;2023-04-08T08:09:06;97021.59;;;6.81;63.07
28000;BME280;15328;50.860;10.562;2023-04-08T08:14:06;97031.09;;;6.75;63.59
28000;BME280;15328;50.860;10.562;2023-04-08T08:19:07;97025.25;;;6.80;63.75
28000;BME280;15328;50.860;10.562;2023-04-08T08:24:07;97022.00;;;6.93;63.35
28000;BME280;15328;50.860;10.562;2023-04-08T08:29:08;97021.72;;;6.88;63.43
28000;BME280;15328;50.860;10.562;2023-04-08T08:34:08;97027.84;;;7.03;63.15
28000;BME280;15328;50.860;10.562;2023-04-08T08:39:08;97027.28;;;7.07;63.88
28000;BME280;15328;50.860;10.562;2023-04-08T08:44:09;97056.53;;;7.14;63.68
28000;BME280;15328;50.860;10.562;2023-04-08T08:49:10;97051.91;;;6.93;63.91
28000;BME280;15328;50.860;10.562;2023-04-08T08:54:11;97066.34;;;7.05;63.65
28000;BME280;15328;50.860;10.562;2023-04-08T08:59:12;97077.94;;;7.04;63.64
28000;BME280;15328;50.860;10.562;2023-04-08T09:04:17;97084.41;;;7.02;63.59
28000;BME280;15328;50.860;10.562;2023-04-08T09:09:18;97083.56;;;7.01;63.15
28000;BME280;15328;50.860;10.562;2023-04-08T09:14:23;97088.03;;;7.01;63.32
28000;BME280;15328;50.860;10.562;2023-04-08T09:19:23;97086.88;;;7.03;63.46
28000;BME280;15328;50.860;10.562;2023-04-08T09:24:28;97084.59;;;7.00;63.68
28000;BME280;15328;50.860;10.562;2023-04-08T09:29:30;97101.47;;;6.99;63.66
28000;BME280;15328;50.860;10.562;2023-04-08T09:34:30;97105.38;;;6.89;64.73
28000;BME280;15328;50.860;10.562;2023-04-08T09:39:33;97110.56;;;6.97;64.68
28000;BME280;15328;50.860;10.562;2023-04-08T09:44:34;97102.75;;;6.80;65.69
28000;BME280;15328;50.860;10.562;2023-04-08T09:49:41;97107.69;;;6.83;65.33
28000;BME280;15328;50.860;10.562;2023-04-08T10:00:08;97101.19;;;6.94;65.51
28000;BME280;15328;50.860;10.562;2023-04-08T10:05:11;97113.31;;;7.03;65.65
28000;BME280;15328;50.860;10.562;2023-04-08T10:10:12;97118.53;;;7.11;65.26
28000;BME280;15328;50.860;10.562;2023-04-08T10:15:29;97118.13;;;7.23;64.79
28000;BME280;15328;50.860;10.562;2023-04-08T10:25:34;97119.44;;;7.41;64.52
28000;BME280;15328;50.860;10.562;2023-04-08T10:35:46;97126.81;;;7.46;64.50
28000;BME280;15328;50.860;10.562;2023-04-08T10:40:47;97128.09;;;7.65;63.94
28000;BME280;15328;50.860;10.562;2023-04-08T10:45:48;97125.81;;;7.62;64.42
28000;BME280;15328;50.860;10.562;2023-04-08T10:56:06;97126.34;;;7.57;64.97
28000;BME280;15328;50.860;10.562;2023-04-08T11:01:07;97135.38;;;7.63;64.41
28000;BME280;15328;50.860;10.562;2023-04-08T11:06:08;97124.09;;;7.69;64.77
28000;BME280;15328;50.860;10.562;2023-04-08T11:11:11;97119.34;;;7.79;64.26
28000;BME280;15328;50.860;10.562;2023-04-08T11:16:11;97119.50;;;7.63;64.48
28000;BME280;15328;50.860;10.562;2023-04-08T11:21:12;97131.84;;;7.70;64.79
28000;BME280;15328;50.860;10.562;2023-04-08T11:26:14;97123.06;;;7.55;65.24
28000;BME280;15328;50.860;10.562;2023-04-08T11:31:14;97126.34;;;7.57;64.94
28000;BME280;15328;50.860;10.562;2023-04-08T11:36:19;97122.53;;;7.60;64.84
28000;BME280;15328;50.860;10.562;2023-04-08T11:41:21;97127.81;;;7.60;65.67
28000;BME280;15328;50.860;10.562;2023-04-08T11:46:22;97136.66;;;7.67;65.47
28000;BME280;15328;50.860;10.562;2023-04-08T11:51:23;97136.97;;;7.72;65.37
28000;BME280;15328;50.860;10.562;2023-04-08T11:56:24;97138.03;;;7.48;66.09
28000;BME280;15328;50.860;10.562;2023-04-08T12:01:25;97147.72;;;7.56;65.88
28000;BME280;15328;50.860;10.562;2023-04-08T12:06:27;97152.94;;;7.49;66.35
28000;BME280;15328;50.860;10.562;2023-04-08T12:11:27;97156.03;;;7.53;65.86
28000;BME280;15328;50.860;10.562;2023-04-08T12:16:28;97149.41;;;7.34;67.36
28000;BME280;15328;50.860;10.562;2023-04-08T12:21:28;97147.41;;;7.36;66.88
28000;BME280;15328;50.860;10.562;2023-04-08T12:26:28;97147.78;;;7.33;67.09
28000;BME280;15328;50.860;10.562;2023-04-08T12:31:29;97155.34;;;7.36;67.66
28000;BME280;15328;50.860;10.562;2023-04-08T12:36:30;97160.13;;;7.40;67.32
28000;BME280;15328;50.860;10.562;2023-04-08T12:41:31;97156.66;;;7.55;67.41
28000;BME280;15328;50.860;10.562;2023-04-08T12:46:31;97154.19;;;7.53;67.63
28000;BME280;15328;50.860;10.562;2023-04-08T12:51:31;97156.22;;;7.51;67.64
28000;BME280;15328;50.860;10.562;2023-04-08T12:56:32;97159.00;;;7.35;68.23
28000;BME280;15328;50.860;10.562;2023-04-08T13:01:33;97151.91;;;7.50;68.36
28000;BME280;15328;50.860;10.562;2023-04-08T13:06:33;97159.88;;;7.65;68.03
28000;BME280;15328;50.860;10.562;2023-04-08T13:11:33;97163.88;;;7.61;67.78
28000;BME280;15328;50.860;10.562;2023-04-08T13:16:34;97167.06;;;7.56;68.13
28000;BME280;15328;50.860;10.562;2023-04-08T13:21:34;97158.22;;;7.64;68.33
28000;BME280;15328;50.860;10.562;2023-04-08T13:26:34;97167.63;;;7.66;67.90
28000;BME280;15328;50.860;10.562;2023-04-08T13:31:35;97171.41;;;7.72;67.76
28000;BME280;15328;50.860;10.562;2023-04-08T13:36:35;97162.50;;;7.65;67.62
28000;BME280;15328;50.860;10.562;2023-04-08T13:41:35;97160.59;;;7.44;68.33
28000;BME280;15328;50.860;10.562;2023-04-08T13:46:36;97164.34;;;7.50;68.21
28000;BME280;15328;50.860;10.562;2023-04-08T13:51:36;97155.66;;;7.56;68.18
28000;BME280;15328;50.860;10.562;2023-04-08T13:56:36;97165.16;;;7.65;67.80
28000;BME280;15328;50.860;10.562;2023-04-08T14:01:37;97163.16;;;7.67;67.61
28000;BME280;15328;50.860;10.562;2023-04-08T14:06:39;97161.63;;;7.72;67.59
28000;BME280;15328;50.860;10.562;2023-04-08T14:11:40;97160.16;;;7.85;67.41
28000;BME280;15328;50.860;10.562;2023-04-08T14:16:40;97167.72;;;7.88;67.46
28000;BME280;15328;50.860;10.562;2023-04-08T14:21:41;97167.75;;;8.02;66.95
28000;BME280;15328;50.860;10.562;2023-04-08T14:26:41;97159.22;;;8.07;66.84
28000;BME280;15328;50.860;10.562;2023-04-08T14:31:41;97166.63;;;8.26;66.50
28000;BME280;15328;50.860;10.562;2023-04-08T14:36:42;97168.25;;;8.27;65.74
28000;BME280;15328;50.860;10.562;2023-04-08T14:41:42;97172.28;;;8.38;65.10
28000;BME280;15328;50.860;10.562;2023-04-08T14:51:45;97164.16;;;8.40;64.99
28000;BME280;15328;50.860;10.562;2023-04-08T14:56:45;97172.28;;;8.53;64.57
28000;BME280;15328;50.860;10.562;2023-04-08T15:01:46;97171.31;;;8.60;63.92
28000;BME280;15328;50.860;10.562;2023-04-08T15:06:46;97174.91;;;8.53;63.74
28000;BME280;15328;50.860;10.562;2023-04-08T15:11:48;97171.09;;;8.41;64.34
28000;BME280;15328;50.860;10.562;2023-04-08T15:16:48;97180.94;;;8.47;63.90
28000;BME280;15328;50.860;10.562;2023-04-08T15:21:48;97179.59;;;8.51;63.77
28000;BME280;15328;50.860;10.562;2023-04-08T15:26:49;97181.03;;;8.53;63.67
28000;BME280;15328;50.860;10.562;2023-04-08T15:31:49;97184.03;;;8.65;63.97
28000;BME280;15328;50.860;10.562;2023-04-08T15:36:49;97185.34;;;8.76;63.16
28000;BME280;15328;50.860;10.562;2023-04-08T15:41:50;97195.47;;;8.87;63.46
28000;BME280;15328;50.860;10.562;2023-04-08T15:46:51;97198.78;;;8.89;62.47
28000;BME280;15328;50.860;10.562;2023-04-08T15:51:51;97196.88;;;8.83;62.54
28000;BME280;15328;50.860;10.562;2023-04-08T15:56:52;97197.13;;;8.88;62.43
28000;BME280;15328;50.860;10.562;2023-04-08T16:01:52;97201.09;;;8.77;61.58
28000;BME280;15328;50.860;10.562;2023-04-08T16:06:53;97194.31;;;8.75;61.96
28000;BME280;15328;50.860;10.562;2023-04-08T16:11:53;97188.56;;;8.71;62.01
28000;BME280;15328;50.860;10.562;2023-04-08T16:16:54;97204.97;;;8.60;62.02
28000;BME280;15328;50.860;10.562;2023-04-08T16:21:54;97207.59;;;8.75;61.77
28000;BME280;15328;50.860;10.562;2023-04-08T16:26:54;97207.69;;;8.81;61.79
28000;BME280;15328;50.860;10.562;2023-04-08T16:31:56;97209.38;;;8.89;61.32
28000;BME280;15328;50.860;10.562;2023-04-08T16:36:57;97223.91;;;8.93;61.08
28000;BME280;15328;50.860;10.562;2023-04-08T16:41:57;97221.81;;;8.88;61.44
28000;BME280;15328;50.860;10.562;2023-04-08T16:46:57;97222.31;;;8.98;61.04
28000;BME280;15328;50.860;10.562;2023-04-08T16:51:58;97223.44;;;9.04;60.73
28000;BME280;15328;50.860;10.562;2023-04-08T16:56:58;97226.94;;;8.90;60.76
28000;BME280;15328;50.860;10.562;2023-04-08T17:01:59;97227.63;;;8.77;61.00
28000;BME280;15328;50.860;10.562;2023-04-08T17:06:59;97241.53;;;8.79;61.22
28000;BME280;15328;50.860;10.562;2023-04-08T17:12:00;97248.16;;;8.90;61.26
28000;BME280;15328;50.860;10.562;2023-04-08T17:17:01;97250.19;;;8.88;61.13
28000;BME280;15328;50.860;10.562;2023-04-08T17:22:01;97244.94;;;8.94;60.73
28000;BME280;15328;50.860;10.562;2023-04-08T17:27:01;97254.50;;;8.89;61.04
28000;BME280;15328;50.860;10.562;2023-04-08T17:32:02;97262.63;;;8.87;60.74
28000;BME280;15328;50.860;10.562;2023-04-08T17:37:02;97264.53;;;8.93;60.58
28000;BME280;15328;50.860;10.562;2023-04-08T17:42:04;97264.22;;;8.82;61.14
28000;BME280;15328;50.860;10.562;2023-04-08T17:47:05;97263.19;;;8.83;61.09
28000;BME280;15328;50.860;10.562;2023-04-08T17:52:05;97259.91;;;8.81;61.22
28000;BME280;15328;50.860;10.562;2023-04-08T17:57:06;97270.53;;;8.66;61.31
28000;BME280;15328;50.860;10.562;2023-04-08T18:02:06;97271.66;;;8.57;61.77
28000;BME280;15328;50.860;10.562;2023-04-08T18:07:06;97268.38;;;8.55;62.15
28000;BME280;15328;50.860;10.562;2023-04-08T18:12:07;97271.91;;;8.47;62.61
28000;BME280;15328;50.860;10.562;2023-04-08T18:17:07;97274.50;;;8.41;63.11
28000;BME280;15328;50.860;10.562;2023-04-08T18:22:07;97287.75;;;8.41;62.85
28000;BME280;15328;50.860;10.562;2023-04-08T18:27:08;97288.94;;;8.38;63.23
28000;BME280;15328;50.860;10.562;2023-04-08T18:32:09;97283.63;;;8.38;63.55
28000;BME280;15328;50.860;10.562;2023-04-08T18:37:09;97295.69;;;8.41;63.42
28000;BME280;15328;50.860;10.562;2023-04-08T18:42:16;97300.75;;;8.35;63.45
28000;BME280;15328;50.860;10.562;2023-04-08T18:47:16;97310.34;;;8.36;63.92
28000;BME280;15328;50.860;10.562;2023-04-08T18:52:17;97304.03;;;8.38;63.82
28000;BME280;15328;50.860;10.562;2023-04-08T18:57:18;97305.31;;;8.42;63.30
28000;BME280;15328;50.860;10.562;2023-04-08T19:02:19;97319.00;;;8.45;63.71
28000;BME280;15328;50.860;10.562;2023-04-08T19:07:19;97315.72;;;8.43;63.55
28000;BME280;15328;50.860;10.562;2023-04-08T19:12:20;97318.09;;;8.38;63.76
28000;BME280;15328;50.860;10.562;2023-04-08T19:17:20;97326.50;;;8.42;64.03
28000;BME280;15328;50.860;10.562;2023-04-08T19:22:21;97324.88;;;8.41;63.92
28000;BME280;15328;50.860;10.562;2023-04-08T19:27:21;97330.16;;;8.41;64.22
28000;BME280;15328;50.860;10.562;2023-04-08T19:32:22;97321.13;;;8.35;64.38
28000;BME280;15328;50.860;10.562;2023-04-08T19:37:22;97322.78;;;8.36;64.33
28000;BME280;15328;50.860;10.562;2023-04-08T19:42:22;97320.63;;;8.31;64.61
28000;BME280;15328;50.860;10.562;2023-04-08T19:47:23;97322.38;;;8.24;64.39
28000;BME280;15328;50.860;10.562;2023-04-08T19:52:24;97332.06;;;8.32;64.51
28000;BME280;15328;50.860;10.562;2023-04-08T19:57:25;97328.13;;;8.28;64.78
28000;BME280;15328;50.860;10.562;2023-04-08T20:02:25;97336.63;;;8.23;65.17
28000;BME280;15328;50.860;10.562;2023-04-08T20:07:25;97336.91;;;8.28;65.04
28000;BME280;15328;50.860;10.562;2023-04-08T20:12:26;97328.50;;;8.25;64.98
28000;BME280;15328;50.860;10.562;2023-04-08T20:17:26;97337.56;;;8.30;64.86
28000;BME280;15328;50.860;10.562;2023-04-08T20:22:30;97343.22;;;8.27;65.18
28000;BME280;15328;50.860;10.562;2023-04-08T20:27:31;97331.34;;;8.23;64.98
28000;BME280;15328;50.860;10.562;2023-04-08T20:32:32;97341.38;;;8.28;64.63
28000;BME280;15328;50.860;10.562;2023-04-08T20:37:33;97343.22;;;8.27;64.64
28000;BME280;15328;50.860;10.562;2023-04-08T20:42:34;97345.69;;;8.29;65.17
28000;BME280;15328;50.860;10.562;2023-04-08T20:47:34;97336.09;;;8.28;65.09
28000;BME280;15328;50.860;10.562;2023-04-08T20:52:35;97336.28;;;8.26;64.81
28000;BME280;15328;50.860;10.562;2023-04-08T20:57:35;97344.88;;;8.28;65.10
28000;BME280;15328;50.860;10.562;2023-04-08T21:02:35;97343.91;;;8.21;65.21
28000;BME280;15328;50.860;10.562;2023-04-08T21:07:36;97344.00;;;8.13;65.48
28000;BME280;15328;50.860;10.562;2023-04-08T21:12:37;97343.09;;;8.21;65.32
28000;BME280;15328;50.860;10.562;2023-04-08T21:17:37;97341.16;;;8.15;65.15
28000;BME280;15328;50.860;10.562;2023-04-08T21:22:38;97351.78;;;8.15;65.28
28000;BME280;15328;50.860;10.562;2023-04-08T21:27:38;97344.38;;;8.10;65.47
28000;BME280;15328;50.860;10.562;2023-04-08T21:32:40;97343.00;;;8.14;65.57
28000;BME280;15328;50.860;10.562;2023-04-08T21:37:40;97338.47;;;8.23;65.08
28000;BME280;15328;50.860;10.562;2023-04-08T21:42:41;97344.66;;;8.15;65.18
28000;BME280;15328;50.860;10.562;2023-04-08T21:47:41;97347.28;;;8.15;64.98
28000;BME280;15328;50.860;10.562;2023-04-08T21:52:42;97349.75;;;8.17;64.62
28000;BME280;15328;50.860;10.562;2023-04-08T21:57:42;97340.44;;;8.06;65.27
28000;BME280;15328;50.860;10.562;2023-04-08T22:02:42;97344.47;;;8.17;64.80
28000;BME280;15328;50.860;10.562;2023-04-08T22:07:43;97343.00;;;8.14;64.71
28000;BME280;15328;50.860;10.562;2023-04-08T22:12:43;97349.75;;;8.17;64.58
28000;BME280;15328;50.860;10.562;2023-04-08T22:17:43;97339.81;;;8.19;64.36
28000;BME280;15328;50.860;10.562;2023-04-08T22:22:44;97347.75;;;8.19;64.49
28000;BME280;15328;50.860;10.562;2023-04-08T22:27:44;97337.97;;;8.19;64.15
28000;BME280;15328;50.860;10.562;2023-04-08T22:32:45;97335.03;;;8.14;64.45
28000;BME280;15328;50.860;10.562;2023-04-08T22:37:45;97340.53;;;8.13;64.60
28000;BME280;15328;50.860;10.562;2023-04-08T22:42:45;97332.22;;;8.16;63.77
28000;BME280;15328;50.860;10.562;2023-04-08T22:47:46;97331.28;;;8.09;64.70
28000;BME280;15328;50.860;10.562;2023-04-08T22:52:46;97331.19;;;8.02;64.61
28000;BME280;15328;50.860;10.562;2023-04-08T22:57:46;97330.84;;;8.05;64.61
28000;BME280;15328;50.860;10.562;2023-04-08T23:02:47;97334.59;;;8.11;64.90
28000;BME280;15328;50.860;10.562;2023-04-08T23:07:47;97332.56;;;8.13;64.95
28000;BME280;15328;50.860;10.562;2023-04-08T23:12:47;97328.56;;;8.02;65.00
28000;BME280;15328;50.860;10.562;2023-04-08T23:17:48;97334.88;;;8.16;64.98
28000;BME280;15328;50.860;10.562;2023-04-08T23:22:48;97325.34;;;8.06;64.54
28000;BME280;15328;50.860;10.562;2023-04-08T23:27:48;97335.59;;;8.10;65.21
28000;BME280;15328;50.860;10.562;2023-04-08T23:32:49;97331.94;;;8.11;65.32
28000;BME280;15328;50.860;10.562;2023-04-08T23:37:49;97327.19;;;8.06;65.39
28000;BME280;15328;50.860;10.562;2023-04-08T23:42:50;97330.28;;;8.10;65.27
28000;BME280;15328;50.860;10.562;2023-04-08T23:47:50;97331.19;;;8.02;65.51
28000;BME280;15328;50.860;10.562;2023-04-08T23:52:50;97338.97;;;8.03;65.15
28000;BME280;15328;50.860;10.562;2023-04-08T23:57:51;97333.03;;;8.01;65.36
